createdAt,value
2022-11-29T00:00:02.726Z,26.67
2022-11-29T00:02:31.465Z,27.07
2022-11-29T00:05:00.950Z,29.33
2022-11-29T00:07:29.065Z,27.97
2022-11-29T00:09:57.145Z,31.03
2022-11-29T00:12:25.156Z,25.33
2022-11-29T00:14:53.172Z,27.23
2022-11-29T00:17:21.169Z,28.40
2022-11-29T00:19:49.251Z,25.90
2022-11-29T00:22:18.642Z,27.93
2022-11-29T00:24:46.778Z,32.30
2022-11-29T00:27:14.863Z,27.70
2022-11-29T00:29:42.891Z,30.47
2022-11-29T00:32:11.046Z,28.00
2022-11-29T00:34:39.204Z,26.83
2022-11-29T00:37:07.213Z,27.60
2022-11-29T00:39:36.650Z,28.80
2022-11-29T00:42:04.810Z,31.93
2022-11-29T00:44:32.825Z,30.37
2022-11-29T00:47:00.807Z,29.03
2022-11-29T00:49:28.860Z,28.53
2022-11-29T00:51:56.963Z,30.87
2022-11-29T00:54:25.055Z,27.93
2022-11-29T00:56:54.595Z,30.73
2022-11-29T00:59:22.832Z,34.53
2022-11-29T01:01:50.907Z,31.50
2022-11-29T01:04:19.031Z,34.03
2022-11-29T01:06:47.298Z,30.60
2022-11-29T01:09:15.330Z,31.43
2022-11-29T01:11:43.379Z,28.20
2022-11-29T01:14:14.411Z,30.77
2022-11-29T01:16:42.704Z,33.33
2022-11-29T01:19:10.829Z,32.17
2022-11-29T01:21:39.180Z,36.10
2022-11-29T01:24:07.453Z,34.97
2022-11-29T01:26:35.634Z,35.90
2022-11-29T01:29:03.665Z,31.80
2022-11-29T01:31:36.330Z,34.33
2022-11-29T01:34:06.479Z,37.90
2022-11-29T01:36:35.268Z,37.07
2022-11-29T01:39:04.635Z,39.20
2022-11-29T01:41:34.296Z,37.03
2022-11-29T01:44:05.778Z,37.13
2022-11-29T01:46:36.756Z,36.83
2022-11-29T01:49:10.068Z,40.83
2022-11-29T01:51:42.520Z,43.87
2022-11-29T01:54:12.021Z,42.63
2022-11-29T01:56:40.884Z,44.33
2022-11-29T01:59:12.553Z,38.87
2022-11-29T02:01:42.337Z,42.23
2022-11-29T02:04:10.511Z,43.07
2022-11-29T02:06:39.871Z,44.10
2022-11-29T02:09:19.876Z,41.47
2022-11-29T02:12:04.890Z,48.40
2022-11-29T02:14:45.430Z,41.73
2022-11-29T02:17:26.120Z,41.33
2022-11-29T02:20:40.728Z,43.17
2022-11-29T02:23:28.586Z,44.27
2022-11-29T02:26:10.175Z,41.90
2022-11-29T02:29:06.420Z,42.43
2022-11-29T02:31:57.117Z,47.87
2022-11-29T02:34:47.308Z,41.20
2022-11-29T02:37:31.095Z,41.13
2022-11-29T02:40:24.153Z,47.87
2022-11-29T02:43:20.436Z,41.50
2022-11-29T02:46:04.781Z,41.57
2022-11-29T02:48:56.581Z,46.37
2022-11-29T02:51:32.158Z,44.17
2022-11-29T02:54:07.308Z,41.80
2022-11-29T02:56:41.866Z,42.50
2022-11-29T02:59:17.685Z,47.13
2022-11-29T03:01:55.715Z,44.50
2022-11-29T03:04:32.783Z,46.10
2022-11-29T03:07:08.285Z,44.30
2022-11-29T03:09:40.581Z,43.83
2022-11-29T03:12:17.886Z,45.83
2022-11-29T03:14:56.973Z,48.13
2022-11-29T03:17:38.929Z,46.80
2022-11-29T03:20:23.910Z,42.17
2022-11-29T03:23:07.659Z,48.20
2022-11-29T03:25:40.675Z,46.67
2022-11-29T03:28:15.903Z,44.83
2022-11-29T03:30:51.758Z,48.83
2022-11-29T03:33:25.755Z,47.37
2022-11-29T03:36:01.359Z,43.30
2022-11-29T03:38:39.416Z,47.33
2022-11-29T03:41:18.776Z,46.20
2022-11-29T03:43:52.061Z,45.53
2022-11-29T03:46:28.798Z,48.87
2022-11-29T03:49:03.573Z,50.50
2022-11-29T03:51:44.805Z,46.93
2022-11-29T03:54:18.848Z,41.07
2022-11-29T03:56:47.585Z,46.43
2022-11-29T03:59:31.956Z,47.20
2022-11-29T04:02:40.519Z,43.93
2022-11-29T04:05:29.109Z,45.80
2022-11-29T04:08:37.172Z,45.63
2022-11-29T04:11:33.852Z,44.07
2022-11-29T04:14:28.972Z,50.03
2022-11-29T04:17:42.044Z,47.50
2022-11-29T04:20:48.883Z,45.43
2022-11-29T04:23:56.936Z,45.33
2022-11-29T04:26:51.682Z,47.40
2022-11-29T04:29:52.064Z,46.33
2022-11-29T04:33:03.036Z,45.40
2022-11-29T04:35:59.408Z,45.80
2022-11-29T04:38:49.454Z,47.23
2022-11-29T04:41:36.196Z,50.63
2022-11-29T04:44:25.617Z,46.07
2022-11-29T04:47:20.964Z,45.40
2022-11-29T04:50:08.929Z,46.70
2022-11-29T04:53:11.229Z,43.47
2022-11-29T04:55:48.553Z,50.60
2022-11-29T04:58:25.886Z,41.33
2022-11-29T05:01:00.777Z,44.47
2022-11-29T05:03:38.927Z,47.00
2022-11-29T05:06:20.912Z,47.13
2022-11-29T05:08:57.217Z,47.33
2022-11-29T05:11:35.756Z,46.80
2022-11-29T05:14:16.077Z,43.87
2022-11-29T05:17:02.116Z,46.07
2022-11-29T05:19:53.004Z,45.83
2022-11-29T05:22:32.629Z,44.93
2022-11-29T05:25:13.902Z,46.90
2022-11-29T05:27:47.819Z,46.43
2022-11-29T05:30:20.983Z,48.77
2022-11-29T05:33:05.546Z,47.00
2022-11-29T05:35:52.636Z,45.23
2022-11-29T05:38:51.780Z,49.47
2022-11-29T05:41:44.664Z,46.30
2022-11-29T05:44:15.119Z,44.97
2022-11-29T05:46:54.440Z,45.83
2022-11-29T05:49:30.622Z,49.23
2022-11-29T05:52:09.053Z,46.33
2022-11-29T05:54:44.072Z,51.43
2022-11-29T05:57:20.764Z,50.63
2022-11-29T05:59:52.110Z,49.63
2022-11-29T06:02:37.028Z,47.80
2022-11-29T06:05:13.244Z,49.93
2022-11-29T06:07:48.583Z,53.00
2022-11-29T06:10:19.314Z,51.93
2022-11-29T06:12:54.912Z,49.30
2022-11-29T06:15:49.984Z,49.40
2022-11-29T06:18:36.222Z,51.43
2022-11-29T06:21:16.383Z,52.13
2022-11-29T06:24:05.838Z,51.37
2022-11-29T06:26:53.094Z,51.30
2022-11-29T06:29:28.905Z,50.40
2022-11-29T06:32:08.378Z,51.17
2022-11-29T06:34:44.440Z,54.17
2022-11-29T06:37:20.176Z,50.37
2022-11-29T06:39:48.774Z,53.60
2022-11-29T06:42:16.995Z,50.30
2022-11-29T06:44:45.617Z,56.40
2022-11-29T06:47:23.921Z,56.97
2022-11-29T06:49:59.246Z,53.87
2022-11-29T06:52:36.374Z,55.47
2022-11-29T06:55:13.224Z,56.83
2022-11-29T06:58:02.163Z,55.63
2022-11-29T07:00:41.282Z,56.07
2022-11-29T07:03:42.444Z,56.23
2022-11-29T07:06:16.487Z,54.47
2022-11-29T07:08:45.242Z,56.33
2022-11-29T07:11:14.441Z,55.17
2022-11-29T07:13:42.990Z,55.70
2022-11-29T07:16:19.060Z,55.37
2022-11-29T07:18:55.651Z,53.97
2022-11-29T07:21:40.493Z,51.70
2022-11-29T07:24:18.682Z,53.70
2022-11-29T07:26:59.764Z,55.13
2022-11-29T07:29:39.960Z,51.13
2022-11-29T07:32:15.908Z,53.70
2022-11-29T07:34:56.126Z,51.33
2022-11-29T07:37:36.032Z,49.53
2022-11-29T07:40:12.111Z,52.00
2022-11-29T07:42:49.886Z,50.40
2022-11-29T07:45:23.617Z,54.00
2022-11-29T07:47:51.653Z,51.97
2022-11-29T07:50:20.094Z,55.40
2022-11-29T07:52:49.797Z,51.43
2022-11-29T07:55:19.654Z,54.57
2022-11-29T07:57:47.980Z,53.67
2022-11-29T08:00:17.116Z,48.97
2022-11-29T08:02:45.248Z,53.83
2022-11-29T08:05:13.491Z,53.67
2022-11-29T08:07:42.670Z,54.80
2022-11-29T08:10:14.245Z,53.77
2022-11-29T08:12:44.242Z,53.87
2022-11-29T08:15:13.042Z,54.40
2022-11-29T08:17:41.290Z,51.90
2022-11-29T08:20:10.809Z,53.67
2022-11-29T08:22:39.087Z,54.97
2022-11-29T08:25:08.698Z,52.23
2022-11-29T08:27:39.007Z,53.40
2022-11-29T08:30:08.880Z,50.27
2022-11-29T08:32:37.037Z,51.20
2022-11-29T08:35:05.288Z,52.50
2022-11-29T08:37:33.291Z,51.17
2022-11-29T08:40:01.298Z,51.40
2022-11-29T08:42:29.315Z,52.10
2022-11-29T08:44:58.689Z,52.33
2022-11-29T08:47:38.436Z,57.23
2022-11-29T08:50:10.188Z,51.67
2022-11-29T08:52:57.322Z,55.47
2022-11-29T08:55:26.897Z,50.47
2022-11-29T08:58:00.977Z,53.93
2022-11-29T09:00:30.363Z,55.30
2022-11-29T09:03:19.168Z,54.40
2022-11-29T09:05:47.276Z,53.13
2022-11-29T09:08:15.730Z,50.73
2022-11-29T09:10:44.135Z,53.80
2022-11-29T09:13:12.620Z,50.27
2022-11-29T09:15:43.679Z,51.80
2022-11-29T09:18:12.080Z,56.87
2022-11-29T09:20:43.630Z,54.30
2022-11-29T09:23:12.238Z,55.67
2022-11-29T09:25:40.315Z,55.27
2022-11-29T09:28:08.700Z,56.50
2022-11-29T09:30:38.155Z,54.10
2022-11-29T09:33:07.588Z,55.37
2022-11-29T09:35:35.769Z,54.67
2022-11-29T09:38:04.175Z,54.43
2022-11-29T09:40:35.021Z,53.30
2022-11-29T09:43:12.131Z,56.37
2022-11-29T09:45:45.212Z,52.73
2022-11-29T09:48:38.243Z,52.57
2022-11-29T09:51:18.516Z,54.33
2022-11-29T09:53:59.443Z,53.13
2022-11-29T09:56:34.859Z,53.73
2022-11-29T09:59:06.107Z,53.83
2022-11-29T10:01:38.634Z,55.20
2022-11-29T10:04:13.328Z,50.67
2022-11-29T10:06:44.694Z,55.93
2022-11-29T10:09:21.676Z,51.03
2022-11-29T10:12:01.159Z,51.87
2022-11-29T10:14:34.726Z,52.17
2022-11-29T10:17:08.247Z,51.47
2022-11-29T10:19:40.965Z,51.50
2022-11-29T10:22:19.016Z,53.90
2022-11-29T10:24:51.094Z,48.17
2022-11-29T10:27:22.681Z,50.60
2022-11-29T10:29:51.264Z,51.77
2022-11-29T10:32:21.630Z,51.00
2022-11-29T10:34:51.917Z,54.27
2022-11-29T10:37:22.399Z,50.87
2022-11-29T10:39:54.115Z,49.43
2022-11-29T10:42:41.294Z,51.23
2022-11-29T10:45:17.887Z,49.83
2022-11-29T10:47:47.842Z,50.23
2022-11-29T10:50:22.577Z,52.67
2022-11-29T10:52:51.504Z,51.80
2022-11-29T10:55:23.852Z,51.47
2022-11-29T10:58:12.385Z,50.70
2022-11-29T11:00:54.856Z,49.30
2022-11-29T11:03:39.356Z,49.23
2022-11-29T11:06:12.473Z,49.77
2022-11-29T11:08:43.700Z,46.93
2022-11-29T11:11:12.842Z,50.50
2022-11-29T11:13:41.938Z,53.83
2022-11-29T11:16:16.571Z,51.93
2022-11-29T11:18:46.308Z,49.13
2022-11-29T11:21:19.090Z,50.73
2022-11-29T11:23:54.166Z,51.57
2022-11-29T11:26:23.088Z,52.23
2022-11-29T11:28:54.504Z,54.67
2022-11-29T11:31:35.489Z,50.63
2022-11-29T11:34:27.209Z,52.10
2022-11-29T11:37:17.566Z,50.80
2022-11-29T11:39:47.046Z,54.00
2022-11-29T11:42:35.149Z,53.80
2022-11-29T11:45:04.649Z,56.13
2022-11-29T11:47:36.790Z,52.63
2022-11-29T11:50:13.568Z,56.20
2022-11-29T11:52:50.380Z,51.37
2022-11-29T11:55:34.932Z,50.60
2022-11-29T11:58:10.184Z,51.30
2022-11-29T12:03:46.199Z,48.40
2022-11-29T12:06:29.671Z,52.07
2022-11-29T12:09:04.697Z,52.20
2022-11-29T12:11:39.607Z,51.43
2022-11-29T12:14:09.093Z,54.73
2022-11-29T12:16:40.276Z,52.77
2022-11-29T12:19:16.025Z,55.63
2022-11-29T12:21:48.504Z,52.60
2022-11-29T12:24:26.271Z,54.07
2022-11-29T12:26:58.524Z,52.87
2022-11-29T12:29:33.521Z,54.40
2022-11-29T12:32:12.791Z,53.07
2022-11-29T12:34:53.589Z,52.00
2022-11-29T12:37:28.791Z,54.73
2022-11-29T12:40:06.626Z,55.37
2022-11-29T12:42:47.484Z,52.83
2022-11-29T12:45:35.587Z,52.93
2022-11-29T12:48:14.698Z,53.37
2022-11-29T12:50:52.138Z,54.53
2022-11-29T12:53:35.440Z,55.50
2022-11-29T12:56:15.627Z,54.97
2022-11-29T12:58:54.915Z,56.17
2022-11-29T13:01:31.642Z,52.97
2022-11-29T13:04:11.290Z,50.73
2022-11-29T13:06:44.930Z,54.00
2022-11-29T13:09:33.832Z,52.67
2022-11-29T13:12:07.564Z,53.30
2022-11-29T13:14:43.714Z,54.83
2022-11-29T13:17:28.050Z,56.00
2022-11-29T13:19:59.601Z,53.93
2022-11-29T13:22:33.419Z,52.83
2022-11-29T13:25:05.430Z,53.37
2022-11-29T13:27:39.419Z,54.50
2022-11-29T13:30:08.598Z,59.17
2022-11-29T13:32:38.552Z,57.17
2022-11-29T13:35:13.029Z,57.33
2022-11-29T13:37:54.814Z,56.53
2022-11-29T13:40:32.597Z,56.53
2022-11-29T13:43:10.117Z,56.13
2022-11-29T13:45:43.311Z,55.87
2022-11-29T13:48:34.864Z,56.20
2022-11-29T13:51:28.065Z,55.17
2022-11-29T13:53:56.927Z,53.53
2022-11-29T13:56:36.750Z,55.90
2022-11-29T13:59:15.254Z,57.03
2022-11-29T14:01:48.603Z,59.00
2022-11-29T14:04:26.796Z,59.03
2022-11-29T14:07:12.221Z,58.73
2022-11-29T14:09:51.185Z,61.60
2022-11-29T14:12:36.713Z,55.23
2022-11-29T14:15:19.172Z,59.33
2022-11-29T14:17:53.360Z,60.97
2022-11-29T14:20:59.091Z,60.20
2022-11-29T14:23:35.870Z,55.00
2022-11-29T14:26:30.033Z,64.50
2022-11-29T14:29:01.624Z,65.77
2022-11-29T14:31:51.232Z,64.93
2022-11-29T14:34:42.682Z,61.73
2022-11-29T14:37:31.956Z,60.20
2022-11-29T14:40:05.859Z,59.73
2022-11-29T14:42:33.991Z,59.77
2022-11-29T14:45:04.819Z,61.33
2022-11-29T14:47:36.826Z,59.50
2022-11-29T14:50:09.854Z,64.83
2022-11-29T14:52:40.891Z,64.77
2022-11-29T14:55:30.120Z,60.30
2022-11-29T14:58:16.619Z,57.93
2022-11-29T15:01:12.030Z,60.40
2022-11-29T15:03:50.576Z,65.30
2022-11-29T15:06:25.894Z,62.90
2022-11-29T15:09:01.798Z,66.47
2022-11-29T15:11:46.502Z,62.70
2022-11-29T15:14:20.475Z,61.70
2022-11-29T15:17:16.220Z,57.87
2022-11-29T15:20:07.594Z,61.00
2022-11-29T15:22:47.430Z,64.47
2022-11-29T15:25:17.972Z,65.73
2022-11-29T15:27:53.646Z,76.00
2022-11-29T15:30:33.498Z,68.60
2022-11-29T15:33:03.039Z,66.70
2022-11-29T15:35:33.499Z,61.63
2022-11-29T15:38:01.592Z,63.90
2022-11-29T15:40:35.533Z,58.97
2022-11-29T15:43:15.246Z,59.27
2022-11-29T15:45:49.063Z,57.63
2022-11-29T15:48:22.723Z,57.90
2022-11-29T15:51:01.613Z,62.63
2022-11-29T15:53:34.944Z,59.97
2022-11-29T15:56:05.895Z,64.73
2022-11-29T15:58:35.603Z,56.07
2022-11-29T16:01:04.490Z,57.77
2022-11-29T16:03:34.954Z,60.17
2022-11-29T16:06:08.575Z,53.50
2022-11-29T16:08:41.660Z,58.77
2022-11-29T16:11:16.992Z,57.50
2022-11-29T16:14:02.156Z,55.03
2022-11-29T16:16:32.721Z,59.87
2022-11-29T16:19:10.820Z,59.97
2022-11-29T16:21:40.864Z,58.23
2022-11-29T16:24:14.010Z,56.77
2022-11-29T16:26:44.815Z,60.03
2022-11-29T16:29:24.435Z,56.73
2022-11-29T16:31:53.462Z,57.37
2022-11-29T16:34:27.099Z,57.83
2022-11-29T16:37:05.202Z,58.53
2022-11-29T16:39:34.661Z,68.50
2022-11-29T16:42:07.381Z,55.83
2022-11-29T16:45:12.030Z,60.83
2022-11-29T16:47:58.053Z,56.77
2022-11-29T16:50:27.462Z,55.03
2022-11-29T16:52:58.172Z,57.50
2022-11-29T16:55:26.224Z,57.37
2022-11-29T16:57:54.260Z,53.43
2022-11-29T17:00:33.363Z,59.10
2022-11-29T17:03:01.435Z,57.17
2022-11-29T17:05:29.687Z,55.27
2022-11-29T17:07:59.186Z,56.40
2022-11-29T17:10:28.847Z,56.23
2022-11-29T17:12:56.877Z,53.67
2022-11-29T17:15:24.886Z,57.33
2022-11-29T17:17:52.899Z,59.57
2022-11-29T17:20:20.908Z,57.27
2022-11-29T17:22:49.045Z,56.10
2022-11-29T17:25:18.563Z,58.10
2022-11-29T17:27:46.591Z,54.00
2022-11-29T17:30:15.343Z,55.30
2022-11-29T17:32:43.369Z,59.50
2022-11-29T17:35:11.405Z,59.43
2022-11-29T17:37:39.391Z,56.77
2022-11-29T17:40:08.811Z,52.43
2022-11-29T17:42:38.389Z,55.87
2022-11-29T17:45:07.037Z,59.93
2022-11-29T17:47:35.022Z,55.47
2022-11-29T17:50:03.048Z,58.07
2022-11-29T17:52:31.055Z,58.53
2022-11-29T17:54:59.040Z,58.87
2022-11-29T17:57:27.071Z,57.33
2022-11-29T17:59:56.503Z,55.20
2022-11-29T18:02:24.566Z,55.23
2022-11-29T18:04:52.684Z,62.97
2022-11-29T18:07:20.750Z,56.27
2022-11-29T18:09:49.039Z,55.00
2022-11-29T18:12:17.196Z,67.47
2022-11-29T18:14:45.342Z,61.33
2022-11-29T18:17:14.731Z,61.33
2022-11-29T18:19:43.045Z,69.63
2022-11-29T18:22:11.290Z,70.80
2022-11-29T18:24:43.440Z,70.27
2022-11-29T18:27:11.464Z,58.57
2022-11-29T18:29:39.532Z,56.37
2022-11-29T18:32:07.587Z,61.17
2022-11-29T18:34:36.960Z,58.50
2022-11-29T18:37:05.013Z,57.37
2022-11-29T18:39:33.065Z,60.67
2022-11-29T18:42:01.096Z,60.27
2022-11-29T18:44:30.247Z,56.27
2022-11-29T18:46:58.677Z,59.43
2022-11-29T18:49:26.686Z,60.50
2022-11-29T18:51:56.055Z,58.53
2022-11-29T18:54:24.100Z,62.03
2022-11-29T18:56:52.779Z,58.13
2022-11-29T18:59:22.056Z,57.27
2022-11-29T19:01:50.315Z,59.03
2022-11-29T19:04:20.479Z,70.23
2022-11-29T19:06:49.177Z,58.60
2022-11-29T19:09:21.655Z,64.53
2022-11-29T19:11:50.450Z,62.60
2022-11-29T19:14:19.252Z,60.90
2022-11-29T19:16:49.639Z,57.20
2022-11-29T19:19:18.944Z,61.93
2022-11-29T19:21:47.144Z,60.17
2022-11-29T19:24:17.941Z,61.30
2022-11-29T19:26:48.995Z,62.97
2022-11-29T19:29:18.436Z,64.50
2022-11-29T19:31:46.546Z,61.33
2022-11-29T19:34:14.669Z,60.77
2022-11-29T19:36:44.456Z,67.20
2022-11-29T19:39:14.056Z,67.07
2022-11-29T19:41:44.029Z,62.17
2022-11-29T19:44:14.032Z,63.17
2022-11-29T19:46:43.627Z,60.60
2022-11-29T19:49:11.901Z,64.37
2022-11-29T19:51:40.111Z,69.67
2022-11-29T19:54:09.911Z,63.73
2022-11-29T19:56:38.961Z,61.87
2022-11-29T19:59:07.781Z,61.87
2022-11-29T20:01:41.522Z,70.07
2022-11-29T20:04:12.024Z,67.63
2022-11-29T20:06:40.927Z,65.27
2022-11-29T20:09:08.987Z,60.37
2022-11-29T20:11:37.138Z,70.30
2022-11-29T20:14:06.412Z,65.67
2022-11-29T20:16:37.912Z,60.47
2022-11-29T20:19:10.787Z,64.77
2022-11-29T20:21:43.218Z,66.33
2022-11-29T20:24:12.960Z,66.67
2022-11-29T20:26:42.224Z,67.70
2022-11-29T20:29:10.864Z,59.80
2022-11-29T20:31:49.102Z,63.80
2022-11-29T20:34:19.000Z,65.60
2022-11-29T20:37:08.221Z,76.27
2022-11-29T20:39:42.795Z,72.37
2022-11-29T20:42:26.870Z,70.23
2022-11-29T20:44:56.678Z,75.07
2022-11-29T20:47:28.653Z,71.93
2022-11-29T20:49:57.320Z,75.20
2022-11-29T20:52:37.474Z,75.20
2022-11-29T20:55:06.511Z,74.67
2022-11-29T20:57:34.541Z,80.30
2022-11-29T21:00:02.630Z,75.73
2022-11-29T21:02:32.043Z,77.77
2022-11-29T21:05:00.154Z,75.70
2022-11-29T21:07:29.212Z,77.33
2022-11-29T21:10:01.071Z,76.33
2022-11-29T21:12:30.366Z,75.83
2022-11-29T21:14:58.817Z,76.17
2022-11-29T21:17:33.142Z,79.33
2022-11-29T21:20:04.265Z,74.43
2022-11-29T21:22:40.763Z,76.93
2022-11-29T21:25:20.890Z,81.93
2022-11-29T21:27:49.473Z,74.27
2022-11-29T21:30:20.247Z,74.70
2022-11-29T21:32:49.272Z,72.97
2022-11-29T21:35:18.871Z,77.27
2022-11-29T21:37:47.295Z,78.27
2022-11-29T21:40:16.163Z,70.43
2022-11-29T21:42:44.212Z,73.70
2022-11-29T21:45:15.704Z,68.60
2022-11-29T21:47:44.974Z,75.23
2022-11-29T21:50:16.126Z,71.47
2022-11-29T21:52:45.469Z,67.93
2022-11-29T21:55:13.490Z,71.80
2022-11-29T21:57:41.581Z,76.50
2022-11-29T22:00:10.583Z,69.23
2022-11-29T22:02:38.654Z,74.57
2022-11-29T22:05:10.103Z,78.40
2022-11-29T22:07:38.128Z,78.47
2022-11-29T22:10:13.357Z,75.50
2022-11-29T22:12:51.207Z,72.90
2022-11-29T22:15:24.582Z,78.53
2022-11-29T22:17:53.074Z,72.07
2022-11-29T22:20:21.289Z,79.10
2022-11-29T22:22:49.431Z,76.73
2022-11-29T22:25:18.984Z,77.37
2022-11-29T22:27:47.006Z,74.33
2022-11-29T22:30:15.304Z,78.27
2022-11-29T22:32:43.313Z,79.83
2022-11-29T22:35:11.346Z,71.57
2022-11-29T22:37:39.412Z,74.90
2022-11-29T22:40:08.727Z,76.70
2022-11-29T22:42:38.086Z,77.07
2022-11-29T22:45:06.551Z,80.47
2022-11-29T22:47:34.548Z,81.07
2022-11-29T22:50:02.670Z,79.67
2022-11-29T22:52:30.696Z,73.23
2022-11-29T22:55:04.222Z,78.87
2022-11-29T22:57:32.912Z,74.87
2022-11-29T23:00:02.328Z,75.90
2022-11-29T23:02:30.388Z,75.27
2022-11-29T23:04:58.461Z,71.10
2022-11-29T23:07:26.591Z,77.10
2022-11-29T23:09:55.990Z,80.43
2022-11-29T23:12:24.046Z,81.53
2022-11-29T23:14:56.356Z,75.50
2022-11-29T23:17:26.219Z,76.63
2022-11-29T23:19:54.243Z,70.40
2022-11-29T23:22:22.242Z,71.90
2022-11-29T23:24:50.211Z,69.80
2022-11-29T23:27:18.268Z,74.13
2022-11-29T23:29:46.240Z,76.00
2022-11-29T23:32:14.285Z,70.97
2022-11-29T23:34:43.789Z,70.23
2022-11-29T23:37:11.964Z,70.13
2022-11-29T23:39:40.058Z,72.50
2022-11-29T23:42:08.129Z,73.47
2022-11-29T23:44:36.148Z,71.43
2022-11-29T23:47:04.167Z,79.33
2022-11-29T23:49:35.300Z,73.63
2022-11-29T23:52:04.792Z,75.67
2022-11-29T23:54:32.796Z,71.07
2022-11-29T23:57:00.795Z,68.40
2022-11-29T23:59:28.832Z,74.07
